sensor_id;sensor_type;location;lat;lon;timestamp;P1;durP1;ratioP1;P2;durP2;ratioP2
47812;SDS011;34221;45.296;9.516;2023-07-31T00:00:12;1.48;;;1.02;;
47812;SDS011;34221;45.296;9.516;2023-07-31T00:00:27;1.38;;;1.02;;
47812;SDS011;34221;45.296;9.516;2023-07-31T00:00:42;1.27;;;1.00;;
47812;SDS011;34221;45.296;9.516;2023-07-31T00:00:57;1.95;;;1.30;;
47812;SDS011;34221;45.296;9.516;2023-07-31T00:01:12;2.33;;;1.52;;
47812;SDS011;34221;45.296;9.516;2023-07-31T00:01:27;1.52;;;1.20;;
47812;SDS011;34221;45.296;9.516;2023-07-31T00:01:42;1.15;;;1.05;;
47812;SDS011;34221;45.296;9.516;2023-07-31T00:01:57;1.48;;;1.10;;
47812;SDS011;34221;45.296;9.516;2023-07-31T00:02:12;1.75;;;1.30;;
47812;SDS011;34221;45.296;9.516;2023-07-31T00:02:27;1.85;;;1.33;;
47812;SDS011;34221;45.296;9.516;2023-07-31T00:02:42;1.90;;;1.25;;
47812;SDS011;34221;45.296;9.516;2023-07-31T00:03:17;1.35;;;1.10;;
47812;SDS011;34221;45.296;9.516;2023-07-31T00:03:32;1.60;;;1.30;;
47812;SDS011;34221;45.296;9.516;2023-07-31T00:03:47;1.75;;;1.35;;
47812;SDS011;34221;45.296;9.516;2023-07-31T00:04:02;1.70;;;1.27;;
47812;SDS011;34221;45.296;9.516;2023-07-31T00:04:17;1.52;;;1.20;;
47812;SDS011;34221;45.296;9.516;2023-07-31T00:04:32;1.92;;;1.35;;
47812;SDS011;34221;45.296;9.516;2023-07-31T00:04:47;2.20;;;1.45;;
47812;SDS011;34221;45.296;9.516;2023-07-31T00:05:03;1.73;;;1.20;;
47812;SDS011;34221;45.296;9.516;2023-07-31T00:05:19;1.27;;;1.10;;
47812;SDS011;34221;45.296;9.516;2023-07-31T00:05:33;1.63;;;1.20;;
47812;SDS011;34221;45.296;9.516;2023-07-31T00:05:49;2.25;;;1.48;;
47812;SDS011;34221;45.296;9.516;2023-07-31T00:06:03;2.10;;;1.50;;
47812;SDS011;34221;45.296;9.516;2023-07-31T00:06:18;1.55;;;1.17;;
47812;SDS011;34221;45.296;9.516;2023-07-31T00:06:33;1.33;;;1.00;;
47812;SDS011;34221;45.296;9.516;2023-07-31T00:06:48;1.42;;;1.20;;
47812;SDS011;34221;45.296;9.516;2023-07-31T00:07:03;1.85;;;1.33;;
47812;SDS011;34221;45.296;9.516;2023-07-31T00:07:20;1.85;;;1.30;;
47812;SDS011;34221;45.296;9.516;2023-07-31T00:07:35;1.63;;;1.23;;
47812;SDS011;34221;45.296;9.516;2023-07-31T00:07:50;1.50;;;1.10;;
47812;SDS011;34221;45.296;9.516;2023-07-31T00:08:05;1.70;;;1.10;;
47812;SDS011;34221;45.296;9.516;2023-07-31T00:08:20;1.90;;;1.20;;
47812;SDS011;34221;45.296;9.516;2023-07-31T00:08:35;1.88;;;1.17;;
47812;SDS011;34221;45.296;9.516;2023-07-31T00:08:50;1.63;;;1.10;;
47812;SDS011;34221;45.296;9.516;2023-07-31T00:09:05;1.30;;;1.05;;
47812;SDS011;34221;45.296;9.516;2023-07-31T00:09:20;1.55;;;1.20;;
47812;SDS011;34221;45.296;9.516;2023-07-31T00:09:34;1.83;;;1.23;;
47812;SDS011;34221;45.296;9.516;2023-07-31T00:09:51;1.88;;;1.20;;
47812;SDS011;34221;45.296;9.516;2023-07-31T00:10:07;1.80;;;1.20;;
47812;SDS011;34221;45.296;9.516;2023-07-31T00:10:23;1.33;;;1.10;;
47812;SDS011;34221;45.296;9.516;2023-07-31T00:10:38;1.33;;;1.10;;
47812;SDS011;34221;45.296;9.516;2023-07-31T00:10:53;1.45;;;1.08;;
47812;SDS011;34221;45.296;9.516;2023-07-31T00:11:08;1.65;;;1.20;;
47812;SDS011;34221;45.296;9.516;2023-07-31T00:11:23;1.70;;;1.30;;
47812;SDS011;34221;45.296;9.516;2023-07-31T00:11:37;1.42;;;1.15;;
47812;SDS011;34221;45.296;9.516;2023-07-31T00:11:52;1.55;;;1.13;;
47812;SDS011;34221;45.296;9.516;2023-07-31T00:12:07;1.70;;;1.10;;
47812;SDS011;34221;45.296;9.516;2023-07-31T00:12:22;1.77;;;1.10;;
47812;SDS011;34221;45.296;9.516;2023-07-31T00:12:38;1.42;;;1.10;;
47812;SDS011;34221;45.296;9.516;2023-07-31T00:12:55;1.40;;;1.10;;
47812;SDS011;34221;45.296;9.516;2023-07-31T00:13:10;1.48;;;1.20;;
47812;SDS011;34221;45.296;9.516;2023-07-31T00:13:24;2.10;;;1.42;;
47812;SDS011;34221;45.296;9.516;2023-07-31T00:13:39;2.30;;;1.48;;
47812;SDS011;34221;45.296;9.516;2023-07-31T00:13:54;1.85;;;1.20;;
47812;SDS011;34221;45.296;9.516;2023-07-31T00:14:09;2.15;;;1.27;;
47812;SDS011;34221;45.296;9.516;2023-07-31T00:14:24;1.73;;;1.20;;
47812;SDS011;34221;45.296;9.516;2023-07-31T00:14:39;1.27;;;1.00;;
47812;SDS011;34221;45.296;9.516;2023-07-31T00:14:54;1.30;;;1.02;;
47812;SDS011;34221;45.296;9.516;2023-07-31T00:15:09;1.33;;;1.08;;
47812;SDS011;34221;45.296;9.516;2023-07-31T00:15:24;1.40;;;1.13;;
47812;SDS011;34221;45.296;9.516;2023-07-31T00:15:39;1.77;;;1.40;;
47812;SDS011;34221;45.296;9.516;2023-07-31T00:15:54;1.80;;;1.33;;
47812;SDS011;34221;45.296;9.516;2023-07-31T00:16:09;1.15;;;1.00;;
47812;SDS011;34221;45.296;9.516;2023-07-31T00:16:24;1.35;;;1.10;;
47812;SDS011;34221;45.296;9.516;2023-07-31T00:16:39;1.73;;;1.30;;
47812;SDS011;34221;45.296;9.516;2023-07-31T00:16:54;1.50;;;1.13;;
47812;SDS011;34221;45.296;9.516;2023-07-31T00:17:09;1.35;;;1.05;;
47812;SDS011;34221;45.296;9.516;2023-07-31T00:17:24;1.70;;;1.30;;
47812;SDS011;34221;45.296;9.516;2023-07-31T00:17:39;2.10;;;1.52;;
47812;SDS011;34221;45.296;9.516;2023-07-31T00:18:30;1.20;;;0.90;;
47812;SDS011;34221;45.296;9.516;2023-07-31T00:18:45;1.65;;;1.20;;
47812;SDS011;34221;45.296;9.516;2023-07-31T00:18:59;1.80;;;1.20;;
47812;SDS011;34221;45.296;9.516;2023-07-31T00:19:14;1.13;;;0.90;;
47812;SDS011;34221;45.296;9.516;2023-07-31T00:19:29;1.38;;;1.08;;
47812;SDS011;34221;45.296;9.516;2023-07-31T00:19:44;1.67;;;1.20;;
47812;SDS011;34221;45.296;9.516;2023-07-31T00:20:00;1.42;;;1.13;;
47812;SDS011;34221;45.296;9.516;2023-07-31T00:20:15;1.55;;;1.20;;
47812;SDS011;34221;45.296;9.516;2023-07-31T00:20:30;1.55;;;1.20;;
47812;SDS011;34221;45.296;9.516;2023-07-31T00:20:45;1.50;;;1.17;;
47812;SDS011;34221;45.296;9.516;2023-07-31T00:21:00;1.80;;;1.27;;
47812;SDS011;34221;45.296;9.516;2023-07-31T00:21:15;1.80;;;1.35;;
47812;SDS011;34221;45.296;9.516;2023-07-31T00:21:30;1.85;;;1.42;;
47812;SDS011;34221;45.296;9.516;2023-07-31T00:21:47;1.73;;;1.27;;
47812;SDS011;34221;45.296;9.516;2023-07-31T00:22:02;1.70;;;1.27;;
47812;SDS011;34221;45.296;9.516;2023-07-31T00:22:18;1.98;;;1.40;;
47812;SDS011;34221;45.296;9.516;2023-07-31T00:22:32;1.98;;;1.40;;
47812;SDS011;34221;45.296;9.516;2023-07-31T00:22:47;1.48;;;1.15;;
47812;SDS011;34221;45.296;9.516;2023-07-31T00:23:02;1.35;;;1.02;;
47812;SDS011;34221;45.296;9.516;2023-07-31T00:23:17;1.77;;;1.25;;
47812;SDS011;34221;45.296;9.516;2023-07-31T00:23:32;1.65;;;1.15;;
47812;SDS011;34221;45.296;9.516;2023-07-31T00:23:47;1.85;;;1.30;;
47812;SDS011;34221;45.296;9.516;2023-07-31T00:24:02;1.85;;;1.30;;
47812;SDS011;34221;45.296;9.516;2023-07-31T00:24:17;1.63;;;1.10;;
47812;SDS011;34221;45.296;9.516;2023-07-31T00:24:32;1.42;;;1.00;;
47812;SDS011;34221;45.296;9.516;2023-07-31T00:24:47;1.40;;;1.10;;
47812;SDS011;34221;45.296;9.516;2023-07-31T00:25:02;1.67;;;1.30;;
47812;SDS011;34221;45.296;9.516;2023-07-31T00:25:20;1.67;;;1.20;;
47812;SDS011;34221;45.296;9.516;2023-07-31T00:25:35;1.75;;;1.10;;
47812;SDS011;34221;45.296;9.516;2023-07-31T00:25:49;1.50;;;1.00;;
47812;SDS011;34221;45.296;9.516;2023-07-31T00:26:04;1.30;;;1.00;;
47812;SDS011;34221;45.296;9.516;2023-07-31T00:26:19;1.60;;;1.25;;
47812;SDS011;34221;45.296;9.516;2023-07-31T00:26:34;1.60;;;1.23;;
47812;SDS011;34221;45.296;9.516;2023-07-31T00:26:49;1.50;;;1.10;;
47812;SDS011;34221;45.296;9.516;2023-07-31T00:27:04;1.60;;;1.20;;
47812;SDS011;34221;45.296;9.516;2023-07-31T00:27:19;1.70;;;1.20;;
47812;SDS011;34221;45.296;9.516;2023-07-31T00:27:34;1.57;;;1.10;;
47812;SDS011;34221;45.296;9.516;2023-07-31T00:27:49;1.48;;;1.10;;
47812;SDS011;34221;45.296;9.516;2023-07-31T00:28:04;1.75;;;1.20;;
47812;SDS011;34221;45.296;9.516;2023-07-31T00:28:19;1.65;;;1.15;;
47812;SDS011;34221;45.296;9.516;2023-07-31T00:28:34;1.70;;;1.13;;
47812;SDS011;34221;45.296;9.516;2023-07-31T00:28:49;1.98;;;1.33;;
47812;SDS011;34221;45.296;9.516;2023-07-31T00:29:04;1.95;;;1.35;;
47812;SDS011;34221;45.296;9.516;2023-07-31T00:29:19;1.73;;;1.27;;
47812;SDS011;34221;45.296;9.516;2023-07-31T00:29:34;1.52;;;1.20;;
47812;SDS011;34221;45.296;9.516;2023-07-31T00:29:49;1.52;;;1.13;;
47812;SDS011;34221;45.296;9.516;2023-07-31T00:30:04;1.40;;;1.00;;
47812;SDS011;34221;45.296;9.516;2023-07-31T00:30:21;1.52;;;1.10;;
47812;SDS011;34221;45.296;9.516;2023-07-31T00:30:36;1.75;;;1.27;;
47812;SDS011;34221;45.296;9.516;2023-07-31T00:30:52;1.88;;;1.30;;
47812;SDS011;34221;45.296;9.516;2023-07-31T00:31:07;1.90;;;1.30;;
47812;SDS011;34221;45.296;9.516;2023-07-31T00:31:46;1.70;;;1.30;;
47812;SDS011;34221;45.296;9.516;2023-07-31T00:32:01;1.70;;;1.15;;
47812;SDS011;34221;45.296;9.516;2023-07-31T00:32:16;1.58;;;1.00;;
47812;SDS011;34221;45.296;9.516;2023-07-31T00:32:31;1.63;;;1.00;;
47812;SDS011;34221;45.296;9.516;2023-07-31T00:32:48;1.70;;;1.10;;
47812;SDS011;34221;45.296;9.516;2023-07-31T00:33:03;1.35;;;1.08;;
47812;SDS011;34221;45.296;9.516;2023-07-31T00:33:18;1.52;;;1.10;;
47812;SDS011;34221;45.296;9.516;2023-07-31T00:33:34;1.60;;;1.17;;
47812;SDS011;34221;45.296;9.516;2023-07-31T00:33:51;1.25;;;1.05;;
47812;SDS011;34221;45.296;9.516;2023-07-31T00:34:06;1.77;;;1.20;;
47812;SDS011;34221;45.296;9.516;2023-07-31T00:34:23;1.83;;;1.27;;
47812;SDS011;34221;45.296;9.516;2023-07-31T00:34:38;1.55;;;1.20;;
47812;SDS011;34221;45.296;9.516;2023-07-31T00:34:53;1.50;;;1.20;;
47812;SDS011;34221;45.296;9.516;2023-07-31T00:35:08;1.45;;;1.10;;
47812;SDS011;34221;45.296;9.516;2023-07-31T00:35:23;1.67;;;1.20;;
47812;SDS011;34221;45.296;9.516;2023-07-31T00:35:38;1.60;;;1.20;;
47812;SDS011;34221;45.296;9.516;2023-07-31T00:35:53;1.50;;;1.10;;
47812;SDS011;34221;45.296;9.516;2023-07-31T00:36:08;1.70;;;1.25;;
47812;SDS011;34221;45.296;9.516;2023-07-31T00:36:23;1.77;;;1.20;;
47812;SDS011;34221;45.296;9.516;2023-07-31T00:36:38;1.52;;;1.10;;
47812;SDS011;34221;45.296;9.516;2023-07-31T00:36:53;1.00;;;0.90;;
47812;SDS011;34221;45.296;9.516;2023-07-31T00:37:08;0.80;;;0.80;;
47812;SDS011;34221;45.296;9.516;2023-07-31T00:37:23;1.00;;;0.90;;
47812;SDS011;34221;45.296;9.516;2023-07-31T00:37:38;1.27;;;1.02;;
47812;SDS011;34221;45.296;9.516;2023-07-31T00:37:53;1.50;;;1.17;;
47812;SDS011;34221;45.296;9.516;2023-07-31T00:38:28;1.40;;;1.10;;
47812;SDS011;34221;45.296;9.516;2023-07-31T00:38:43;1.20;;;1.00;;
47812;SDS011;34221;45.296;9.516;2023-07-31T00:38:58;1.30;;;1.00;;
47812;SDS011;34221;45.296;9.516;2023-07-31T00:39:14;1.70;;;1.30;;
47812;SDS011;34221;45.296;9.516;2023-07-31T00:39:30;1.60;;;1.30;;
47812;SDS011;34221;45.296;9.516;2023-07-31T00:39:45;1.50;;;1.10;;
47812;SDS011;34221;45.296;9.516;2023-07-31T00:40:00;1.70;;;1.10;;
47812;SDS011;34221;45.296;9.516;2023-07-31T00:40:15;1.63;;;1.10;;
47812;SDS011;34221;45.296;9.516;2023-07-31T00:40:34;1.60;;;0.90;;
47812;SDS011;34221;45.296;9.516;2023-07-31T00:40:52;1.70;;;1.10;;
47812;SDS011;34221;45.296;9.516;2023-07-31T00:41:07;1.58;;;1.27;;
47812;SDS011;34221;45.296;9.516;2023-07-31T00:41:22;1.60;;;1.17;;
47812;SDS011;34221;45.296;9.516;2023-07-31T00:41:37;1.20;;;1.00;;
47812;SDS011;34221;45.296;9.516;2023-07-31T00:41:52;1.15;;;1.00;;
47812;SDS011;34221;45.296;9.516;2023-07-31T00:42:07;1.42;;;1.10;;
47812;SDS011;34221;45.296;9.516;2023-07-31T00:42:22;1.40;;;1.10;;
47812;SDS011;34221;45.296;9.516;2023-07-31T00:42:38;1.17;;;0.90;;
47812;SDS011;34221;45.296;9.516;2023-07-31T00:42:53;1.30;;;0.95;;
47812;SDS011;34221;45.296;9.516;2023-07-31T00:43:08;1.60;;;1.13;;
47812;SDS011;34221;45.296;9.516;2023-07-31T00:43:24;1.50;;;1.10;;
47812;SDS011;34221;45.296;9.516;2023-07-31T00:43:39;1.65;;;1.25;;
47812;SDS011;34221;45.296;9.516;2023-07-31T00:43:55;2.30;;;1.55;;
47812;SDS011;34221;45.296;9.516;2023-07-31T00:44:10;2.13;;;1.42;;
47812;SDS011;34221;45.296;9.516;2023-07-31T00:44:25;1.50;;;1.13;;
47812;SDS011;34221;45.296;9.516;2023-07-31T00:44:41;1.27;;;1.05;;
47812;SDS011;34221;45.296;9.516;2023-07-31T00:44:56;1.10;;;0.90;;
47812;SDS011;34221;45.296;9.516;2023-07-31T00:45:11;1.10;;;0.80;;
47812;SDS011;34221;45.296;9.516;2023-07-31T00:45:26;1.58;;;1.10;;
47812;SDS011;34221;45.296;9.516;2023-07-31T00:45:43;1.38;;;1.10;;
47812;SDS011;34221;45.296;9.516;2023-07-31T00:45:59;1.13;;;1.02;;
47812;SDS011;34221;45.296;9.516;2023-07-31T00:46:14;1.52;;;1.20;;
47812;SDS011;34221;45.296;9.516;2023-07-31T00:46:29;1.83;;;1.27;;
47812;SDS011;34221;45.296;9.516;2023-07-31T00:46:44;2.00;;;1.40;;
47812;SDS011;34221;45.296;9.516;2023-07-31T00:46:59;2.00;;;1.43;;
47812;SDS011;34221;45.296;9.516;2023-07-31T00:47:14;1.73;;;1.23;;
47812;SDS011;34221;45.296;9.516;2023-07-31T00:47:29;1.33;;;1.03;;
47812;SDS011;34221;45.296;9.516;2023-07-31T00:47:44;1.67;;;1.23;;
47812;SDS011;34221;45.296;9.516;2023-07-31T00:47:59;1.98;;;1.30;;
47812;SDS011;34221;45.296;9.516;2023-07-31T00:48:14;1.45;;;1.10;;
47812;SDS011;34221;45.296;9.516;2023-07-31T00:48:29;1.90;;;1.20;;
47812;SDS011;34221;45.296;9.516;2023-07-31T00:48:44;2.08;;;1.25;;
47812;SDS011;34221;45.296;9.516;2023-07-31T00:49:00;1.65;;;1.20;;
47812;SDS011;34221;45.296;9.516;2023-07-31T00:49:15;1.75;;;1.30;;
47812;SDS011;34221;45.296;9.516;2023-07-31T00:49:30;1.60;;;1.15;;
47812;SDS011;34221;45.296;9.516;2023-07-31T00:49:45;1.33;;;0.98;;
47812;SDS011;34221;45.296;9.516;2023-07-31T00:50:01;1.00;;;0.85;;
47812;SDS011;34221;45.296;9.516;2023-07-31T00:50:16;1.30;;;1.10;;
47812;SDS011;34221;45.296;9.516;2023-07-31T00:50:31;2.38;;;1.40;;
47812;SDS011;34221;45.296;9.516;2023-07-31T00:50:47;2.35;;;1.45;;
47812;SDS011;34221;45.296;9.516;2023-07-31T00:51:03;1.50;;;1.17;;
47812;SDS011;34221;45.296;9.516;2023-07-31T00:51:18;1.33;;;1.08;;
47812;SDS011;34221;45.296;9.516;2023-07-31T00:51:33;1.60;;;1.20;;
47812;SDS011;34221;45.296;9.516;2023-07-31T00:51:48;1.63;;;1.25;;
47812;SDS011;34221;45.296;9.516;2023-07-31T00:52:03;1.35;;;1.10;;
47812;SDS011;34221;45.296;9.516;2023-07-31T00:52:19;1.35;;;1.10;;
47812;SDS011;34221;45.296;9.516;2023-07-31T00:52:35;1.65;;;1.20;;
47812;SDS011;34221;45.296;9.516;2023-07-31T00:52:51;1.92;;;1.23;;
47812;SDS011;34221;45.296;9.516;2023-07-31T00:53:06;1.73;;;1.13;;
47812;SDS011;34221;45.296;9.516;2023-07-31T00:53:21;1.30;;;1.00;;
47812;SDS011;34221;45.296;9.516;2023-07-31T00:53:38;1.30;;;1.00;;
47812;SDS011;34221;45.296;9.516;2023-07-31T00:53:55;1.52;;;1.10;;
47812;SDS011;34221;45.296;9.516;2023-07-31T00:54:10;1.58;;;1.10;;
47812;SDS011;34221;45.296;9.516;2023-07-31T00:54:27;1.42;;;1.05;;
47812;SDS011;34221;45.296;9.516;2023-07-31T00:54:42;1.47;;;1.10;;
47812;SDS011;34221;45.296;9.516;2023-07-31T00:54:57;1.70;;;1.23;;
47812;SDS011;34221;45.296;9.516;2023-07-31T00:55:13;1.80;;;1.30;;
47812;SDS011;34221;45.296;9.516;2023-07-31T00:55:29;2.08;;;1.42;;
47812;SDS011;34221;45.296;9.516;2023-07-31T00:55:44;1.80;;;1.20;;
47812;SDS011;34221;45.296;9.516;2023-07-31T00:55:59;1.45;;;1.10;;
47812;SDS011;34221;45.296;9.516;2023-07-31T00:56:15;1.60;;;1.20;;
47812;SDS011;34221;45.296;9.516;2023-07-31T00:56:30;1.60;;;1.08;;
47812;SDS011;34221;45.296;9.516;2023-07-31T00:56:45;1.27;;;0.90;;
47812;SDS011;34221;45.296;9.516;2023-07-31T00:57:02;1.20;;;1.00;;
47812;SDS011;34221;45.296;9.516;2023-07-31T00:57:18;1.25;;;1.02;;
47812;SDS011;34221;45.296;9.516;2023-07-31T00:57:33;1.40;;;1.10;;
47812;SDS011;34221;45.296;9.516;2023-07-31T00:57:49;1.40;;;1.10;;
47812;SDS011;34221;45.296;9.516;2023-07-31T00:58:06;1.55;;;1.17;;
47812;SDS011;34221;45.296;9.516;2023-07-31T00:58:21;1.77;;;1.23;;
47812;SDS011;34221;45.296;9.516;2023-07-31T00:58:36;1.88;;;1.23;;
47812;SDS011;34221;45.296;9.516;2023-07-31T00:58:51;2.03;;;1.33;;
47812;SDS011;34221;45.296;9.516;2023-07-31T00:59:06;2.28;;;1.30;;
47812;SDS011;34221;45.296;9.516;2023-07-31T00:59:21;2.13;;;1.20;;
47812;SDS011;34221;45.296;9.516;2023-07-31T00:59:36;1.45;;;1.10;;
47812;SDS011;34221;45.296;9.516;2023-07-31T00:59:51;1.42;;;1.10;;
47812;SDS011;34221;45.296;9.516;2023-07-31T01:00:06;1.60;;;1.25;;
47812;SDS011;34221;45.296;9.516;2023-07-31T01:00:22;1.63;;;1.20;;
47812;SDS011;34221;45.296;9.516;2023-07-31T01:00:37;1.75;;;1.20;;
47812;SDS011;34221;45.296;9.516;2023-07-31T01:00:52;1.65;;;1.20;;
47812;SDS011;34221;45.296;9.516;2023-07-31T01:01:08;1.30;;;1.00;;
47812;SDS011;34221;45.296;9.516;2023-07-31T01:01:23;1.17;;;0.95;;
47812;SDS011;34221;45.296;9.516;2023-07-31T01:01:38;1.42;;;1.02;;
47812;SDS011;34221;45.296;9.516;2023-07-31T01:01:53;1.30;;;1.00;;
47812;SDS011;34221;45.296;9.516;2023-07-31T01:02:09;1.70;;;1.20;;
47812;SDS011;34221;45.296;9.516;2023-07-31T01:02:24;1.73;;;1.30;;
47812;SDS011;34221;45.296;9.516;2023-07-31T01:02:40;1.20;;;1.05;;
47812;SDS011;34221;45.296;9.516;2023-07-31T01:02:55;1.70;;;1.10;;
47812;SDS011;34221;45.296;9.516;2023-07-31T01:03:11;1.83;;;1.15;;
47812;SDS011;34221;45.296;9.516;2023-07-31T01:03:26;1.55;;;1.10;;
47812;SDS011;34221;45.296;9.516;2023-07-31T01:03:41;1.25;;;1.00;;
47812;SDS011;34221;45.296;9.516;2023-07-31T01:03:57;1.15;;;1.00;;
47812;SDS011;34221;45.296;9.516;2023-07-31T01:04:12;1.42;;;1.02;;
47812;SDS011;34221;45.296;9.516;2023-07-31T01:04:27;1.58;;;1.00;;
47812;SDS011;34221;45.296;9.516;2023-07-31T01:04:43;1.38;;;0.93;;
47812;SDS011;34221;45.296;9.516;2023-07-31T01:04:58;1.23;;;0.93;;
47812;SDS011;34221;45.296;9.516;2023-07-31T01:05:14;1.58;;;1.00;;
47812;SDS011;34221;45.296;9.516;2023-07-31T01:05:33;1.58;;;1.05;;
47812;SDS011;34221;45.296;9.516;2023-07-31T01:07:09;1.25;;;1.00;;
47812;SDS011;34221;45.296;9.516;2023-07-31T01:08:11;1.30;;;1.00;;
47812;SDS011;34221;45.296;9.516;2023-07-31T01:10:26;1.70;;;1.10;;
47812;SDS011;34221;45.296;9.516;2023-07-31T01:10:51;1.35;;;1.02;;
47812;SDS011;34221;45.296;9.516;2023-07-31T01:11:19;1.60;;;1.20;;
47812;SDS011;34221;45.296;9.516;2023-07-31T01:11:52;1.27;;;0.90;;
47812;SDS011;34221;45.296;9.516;2023-07-31T01:12:13;1.38;;;1.10;;
47812;SDS011;34221;45.296;9.516;2023-07-31T01:12:29;1.35;;;1.00;;
47812;SDS011;34221;45.296;9.516;2023-07-31T01:12:46;1.27;;;0.98;;
47812;SDS011;34221;45.296;9.516;2023-07-31T01:13:02;1.25;;;1.00;;
47812;SDS011;34221;45.296;9.516;2023-07-31T01:13:18;1.35;;;1.02;;
47812;SDS011;34221;45.296;9.516;2023-07-31T01:13:33;1.60;;;1.10;;
47812;SDS011;34221;45.296;9.516;2023-07-31T01:13:48;1.42;;;1.02;;
47812;SDS011;34221;45.296;9.516;2023-07-31T01:14:03;1.23;;;0.95;;
47812;SDS011;34221;45.296;9.516;2023-07-31T01:14:19;1.35;;;1.00;;
47812;SDS011;34221;45.296;9.516;2023-07-31T01:14:33;1.55;;;1.05;;
47812;SDS011;34221;45.296;9.516;2023-07-31T01:15:07;2.22;;;1.30;;
47812;SDS011;34221;45.296;9.516;2023-07-31T01:15:28;1.20;;;0.90;;
47812;SDS011;34221;45.296;9.516;2023-07-31T01:15:43;1.20;;;1.00;;
47812;SDS011;34221;45.296;9.516;2023-07-31T01:15:58;1.35;;;1.10;;
47812;SDS011;34221;45.296;9.516;2023-07-31T01:16:13;1.77;;;1.10;;
47812;SDS011;34221;45.296;9.516;2023-07-31T01:16:29;1.58;;;0.95;;
47812;SDS011;34221;45.296;9.516;2023-07-31T01:16:44;1.00;;;0.90;;
47812;SDS011;34221;45.296;9.516;2023-07-31T01:17:00;0.80;;;0.80;;
47812;SDS011;34221;45.296;9.516;2023-07-31T01:17:15;1.05;;;0.90;;
47812;SDS011;34221;45.296;9.516;2023-07-31T01:17:31;1.25;;;1.05;;
47812;SDS011;34221;45.296;9.516;2023-07-31T01:17:47;1.20;;;1.00;;
47812;SDS011;34221;45.296;9.516;2023-07-31T01:18:02;1.25;;;0.93;;
47812;SDS011;34221;45.296;9.516;2023-07-31T01:18:18;1.52;;;1.10;;
47812;SDS011;34221;45.296;9.516;2023-07-31T01:18:33;1.63;;;1.15;;
47812;SDS011;34221;45.296;9.516;2023-07-31T01:18:48;1.40;;;1.10;;
47812;SDS011;34221;45.296;9.516;2023-07-31T01:19:03;1.33;;;1.00;;
47812;SDS011;34221;45.296;9.516;2023-07-31T01:19:20;1.40;;;1.00;;
47812;SDS011;34221;45.296;9.516;2023-07-31T01:19:37;1.00;;;0.80;;
47812;SDS011;34221;45.296;9.516;2023-07-31T01:19:53;1.10;;;0.82;;
47812;SDS011;34221;45.296;9.516;2023-07-31T01:20:13;1.67;;;1.10;;
47812;SDS011;34221;45.296;9.516;2023-07-31T01:20:34;1.35;;;0.93;;
47812;SDS011;34221;45.296;9.516;2023-07-31T01:20:54;1.00;;;0.73;;
47812;SDS011;34221;45.296;9.516;2023-07-31T01:21:37;1.30;;;1.10;;
47812;SDS011;34221;45.296;9.516;2023-07-31T01:22:25;1.17;;;0.90;;
47812;SDS011;34221;45.296;9.516;2023-07-31T01:23:22;1.10;;;1.00;;
47812;SDS011;34221;45.296;9.516;2023-07-31T01:26:21;1.02;;;0.90;;
47812;SDS011;34221;45.296;9.516;2023-07-31T01:26:42;1.15;;;0.85;;
47812;SDS011;34221;45.296;9.516;2023-07-31T01:27:04;1.65;;;1.00;;
47812;SDS011;34221;45.296;9.516;2023-07-31T01:27:24;1.20;;;0.90;;
47812;SDS011;34221;45.296;9.516;2023-07-31T01:27:48;0.82;;;0.77;;
47812;SDS011;34221;45.296;9.516;2023-07-31T01:28:14;1.20;;;0.80;;
47812;SDS011;34221;45.296;9.516;2023-07-31T01:28:39;0.98;;;0.88;;
47812;SDS011;34221;45.296;9.516;2023-07-31T01:28:56;1.13;;;1.00;;
47812;SDS011;34221;45.296;9.516;2023-07-31T01:29:45;1.00;;;0.90;;
47812;SDS011;34221;45.296;9.516;2023-07-31T01:30:15;0.73;;;0.70;;
47812;SDS011;34221;45.296;9.516;2023-07-31T01:30:34;1.27;;;0.82;;
47812;SDS011;34221;45.296;9.516;2023-07-31T01:30:55;1.30;;;0.95;;
47812;SDS011;34221;45.296;9.516;2023-07-31T01:31:15;1.00;;;0.90;;
47812;SDS011;34221;45.296;9.516;2023-07-31T01:31:35;0.90;;;0.80;;
47812;SDS011;34221;45.296;9.516;2023-07-31T01:31:52;0.98;;;0.80;;
47812;SDS011;34221;45.296;9.516;2023-07-31T01:32:10;0.93;;;0.80;;
47812;SDS011;34221;45.296;9.516;2023-07-31T01:32:27;1.00;;;0.82;;
47812;SDS011;34221;45.296;9.516;2023-07-31T01:32:43;1.17;;;0.90;;
47812;SDS011;34221;45.296;9.516;2023-07-31T01:33:03;1.00;;;0.80;;
47812;SDS011;34221;45.296;9.516;2023-07-31T01:33:21;1.05;;;0.90;;
47812;SDS011;34221;45.296;9.516;2023-07-31T01:33:37;0.75;;;0.73;;
47812;SDS011;34221;45.296;9.516;2023-07-31T01:33:54;0.52;;;0.52;;
47812;SDS011;34221;45.296;9.516;2023-07-31T01:34:12;0.73;;;0.70;;
47812;SDS011;34221;45.296;9.516;2023-07-31T01:34:28;1.00;;;0.80;;
47812;SDS011;34221;45.296;9.516;2023-07-31T01:34:44;0.80;;;0.70;;
47812;SDS011;34221;45.296;9.516;2023-07-31T01:35:01;0.90;;;0.70;;
47812;SDS011;34221;45.296;9.516;2023-07-31T01:35:16;1.02;;;0.80;;
47812;SDS011;34221;45.296;9.516;2023-07-31T01:35:31;0.73;;;0.70;;
47812;SDS011;34221;45.296;9.516;2023-07-31T01:35:48;0.88;;;0.80;;
47812;SDS011;34221;45.296;9.516;2023-07-31T01:36:04;1.10;;;0.90;;
47812;SDS011;34221;45.296;9.516;2023-07-31T01:36:19;1.30;;;0.90;;
47812;SDS011;34221;45.296;9.516;2023-07-31T01:36:34;1.10;;;0.80;;
47812;SDS011;34221;45.296;9.516;2023-07-31T01:36:50;0.80;;;0.80;;
47812;SDS011;34221;45.296;9.516;2023-07-31T01:37:05;1.10;;;0.80;;
47812;SDS011;34221;45.296;9.516;2023-07-31T01:37:20;0.93;;;0.70;;
47812;SDS011;34221;45.296;9.516;2023-07-31T01:37:35;0.70;;;0.70;;
47812;SDS011;34221;45.296;9.516;2023-07-31T01:37:52;1.00;;;0.80;;
47812;SDS011;34221;45.296;9.516;2023-07-31T01:38:08;1.00;;;0.80;;
47812;SDS011;34221;45.296;9.516;2023-07-31T01:38:23;0.73;;;0.70;;
47812;SDS011;34221;45.296;9.516;2023-07-31T01:38:38;0.80;;;0.70;;
47812;SDS011;34221;45.296;9.516;2023-07-31T01:38:57;0.85;;;0.73;;
47812;SDS011;34221;45.296;9.516;2023-07-31T01:39:15;1.02;;;0.88;;
47812;SDS011;34221;45.296;9.516;2023-07-31T01:39:30;0.93;;;0.80;;
47812;SDS011;34221;45.296;9.516;2023-07-31T01:39:45;0.80;;;0.70;;
47812;SDS011;34221;45.296;9.516;2023-07-31T01:40:00;0.80;;;0.70;;
47812;SDS011;34221;45.296;9.516;2023-07-31T01:40:15;0.85;;;0.68;;
47812;SDS011;34221;45.296;9.516;2023-07-31T01:40:30;0.90;;;0.70;;
47812;SDS011;34221;45.296;9.516;2023-07-31T01:40:45;0.85;;;0.75;;
47812;SDS011;34221;45.296;9.516;2023-07-31T01:41:06;0.80;;;0.75;;
47812;SDS011;34221;45.296;9.516;2023-07-31T01:41:21;0.90;;;0.73;;
47812;SDS011;34221;45.296;9.516;2023-07-31T01:41:36;0.80;;;0.60;;
47812;SDS011;34221;45.296;9.516;2023-07-31T01:41:52;0.60;;;0.60;;
47812;SDS011;34221;45.296;9.516;2023-07-31T01:42:08;0.68;;;0.68;;
47812;SDS011;34221;45.296;9.516;2023-07-31T01:42:23;0.60;;;0.55;;
47812;SDS011;34221;45.296;9.516;2023-07-31T01:42:38;0.55;;;0.52;;
47812;SDS011;34221;45.296;9.516;2023-07-31T01:42:53;0.57;;;0.57;;
47812;SDS011;34221;45.296;9.516;2023-07-31T01:43:08;0.70;;;0.60;;
47812;SDS011;34221;45.296;9.516;2023-07-31T01:43:23;0.60;;;0.60;;
47812;SDS011;34221;45.296;9.516;2023-07-31T01:43:38;0.68;;;0.60;;
47812;SDS011;34221;45.296;9.516;2023-07-31T01:43:53;0.75;;;0.60;;
47812;SDS011;34221;45.296;9.516;2023-07-31T01:44:08;0.52;;;0.52;;
47812;SDS011;34221;45.296;9.516;2023-07-31T01:44:23;0.60;;;0.60;;
47812;SDS011;34221;45.296;9.516;2023-07-31T01:44:38;0.70;;;0.70;;
47812;SDS011;34221;45.296;9.516;2023-07-31T01:44:53;1.00;;;0.80;;
47812;SDS011;34221;45.296;9.516;2023-07-31T01:45:08;1.10;;;0.90;;
47812;SDS011;34221;45.296;9.516;2023-07-31T01:45:44;0.88;;;0.70;;
47812;SDS011;34221;45.296;9.516;2023-07-31T01:45:59;0.93;;;0.70;;
47812;SDS011;34221;45.296;9.516;2023-07-31T01:46:14;0.60;;;0.60;;
47812;SDS011;34221;45.296;9.516;2023-07-31T01:46:29;0.60;;;0.60;;
47812;SDS011;34221;45.296;9.516;2023-07-31T01:46:44;0.60;;;0.60;;